createdAt,value
2019-01-08T00:00:00.173Z,927.54
2019-01-08T00:00:13.420Z,927.53
2019-01-08T00:00:26.435Z,927.53
2019-01-08T00:00:39.365Z,927.54
2019-01-08T00:00:52.359Z,927.54
2019-01-08T00:01:05.355Z,927.55
2019-01-08T00:01:18.305Z,927.54
2019-01-08T00:01:31.286Z,927.55
2019-01-08T00:01:44.281Z,927.55
2019-01-08T00:01:57.333Z,927.53
2019-01-08T00:02:10.324Z,927.56
2019-01-08T00:02:23.365Z,927.52
2019-01-08T00:02:36.394Z,927.48
2019-01-08T00:02:49.390Z,927.5
2019-01-08T00:03:02.413Z,927.54
2019-01-08T00:03:15.555Z,927.51
2019-01-08T00:03:28.565Z,927.54
2019-01-08T00:03:41.509Z,927.51
2019-01-08T00:03:54.482Z,927.56
2019-01-08T00:04:07.036Z,927.54
2019-01-08T00:04:20.004Z,927.54
2019-01-08T00:04:33.080Z,927.54
2019-01-08T00:04:46.074Z,927.5
2019-01-08T00:04:59.085Z,927.54
2019-01-08T00:05:11.642Z,927.51
2019-01-08T00:05:24.610Z,927.54
2019-01-08T00:05:37.605Z,927.54
2019-01-08T00:05:50.583Z,927.53
2019-01-08T00:06:03.519Z,927.55
2019-01-08T00:06:16.536Z,927.54
2019-01-08T00:06:29.582Z,927.54
2019-01-08T00:06:42.593Z,927.56
2019-01-08T00:06:55.567Z,927.57
2019-01-08T00:07:08.538Z,927.56
2019-01-08T00:07:21.765Z,927.56
2019-01-08T00:07:34.727Z,927.57
2019-01-08T00:07:47.763Z,927.58
2019-01-08T00:08:00.820Z,927.59
2019-01-08T00:08:13.732Z,927.58
2019-01-08T00:08:26.724Z,927.6
2019-01-08T00:08:39.726Z,927.59
2019-01-08T00:08:52.686Z,927.59
2019-01-08T00:09:05.638Z,927.6
2019-01-08T00:09:18.617Z,927.59
2019-01-08T00:09:31.662Z,927.58
2019-01-08T00:09:44.662Z,927.59
2019-01-08T00:09:57.621Z,927.61
2019-01-08T00:10:10.675Z,927.62
2019-01-08T00:10:23.685Z,927.56
2019-01-08T00:10:36.626Z,927.59
2019-01-08T00:10:49.631Z,927.62
2019-01-08T00:11:02.621Z,927.64
2019-01-08T00:11:15.554Z,927.6
2019-01-08T00:11:28.547Z,927.62
2019-01-08T00:11:41.579Z,927.65
2019-01-08T00:11:54.595Z,927.65
2019-01-08T00:12:07.587Z,927.62
2019-01-08T00:12:20.543Z,927.65
2019-01-08T00:12:33.539Z,927.63
2019-01-08T00:12:46.575Z,927.63
2019-01-08T00:12:59.582Z,927.64
2019-01-08T00:13:12.160Z,927.65
2019-01-08T00:13:25.258Z,927.62
2019-01-08T00:13:38.291Z,927.64
2019-01-08T00:13:51.323Z,927.69
2019-01-08T00:14:04.312Z,927.7
2019-01-08T00:14:17.330Z,927.66
2019-01-08T00:14:30.319Z,927.65
2019-01-08T00:14:43.317Z,927.68
2019-01-08T00:14:56.296Z,927.68
2019-01-08T00:15:09.250Z,927.65
2019-01-08T00:15:22.270Z,927.68
2019-01-08T00:15:35.229Z,927.69
2019-01-08T00:15:48.200Z,927.71
2019-01-08T00:16:01.164Z,927.68
2019-01-08T00:16:14.218Z,927.7
2019-01-08T00:16:27.168Z,927.72
2019-01-08T00:16:40.176Z,927.73
2019-01-08T00:16:53.163Z,927.7
2019-01-08T00:17:06.165Z,927.72
2019-01-08T00:17:19.204Z,927.72
2019-01-08T00:17:32.212Z,927.71
2019-01-08T00:17:44.726Z,927.7
2019-01-08T00:17:57.703Z,927.67
2019-01-08T00:18:10.688Z,927.72
2019-01-08T00:18:23.642Z,927.72
2019-01-08T00:18:36.632Z,927.7
2019-01-08T00:18:49.173Z,927.7
2019-01-08T00:19:02.468Z,927.73
2019-01-08T00:19:15.484Z,927.68
2019-01-08T00:19:28.431Z,927.7
2019-01-08T00:19:41.441Z,927.74
2019-01-08T00:19:54.464Z,927.7
2019-01-08T00:20:07.440Z,927.69
2019-01-08T00:20:20.468Z,927.71
2019-01-08T00:20:33.392Z,927.71
2019-01-08T00:20:45.938Z,927.74
2019-01-08T00:20:58.929Z,927.74
2019-01-08T00:21:11.930Z,927.73
2019-01-08T00:21:24.874Z,927.72
2019-01-08T00:21:37.884Z,927.72
2019-01-08T00:21:50.943Z,927.73
2019-01-08T00:22:03.899Z,927.71
2019-01-08T00:22:16.890Z,927.76
2019-01-08T00:22:29.897Z,927.75
2019-01-08T00:22:42.446Z,927.75
2019-01-08T00:22:55.408Z,927.75
2019-01-08T00:23:08.372Z,927.75
2019-01-08T00:23:21.378Z,927.74
2019-01-08T00:23:34.387Z,927.74
2019-01-08T00:23:47.385Z,927.73
2019-01-08T00:24:00.410Z,927.72
2019-01-08T00:24:13.431Z,927.74
2019-01-08T00:24:26.429Z,927.76
2019-01-08T00:24:39.411Z,927.75
2019-01-08T00:24:52.456Z,927.75
2019-01-08T00:25:05.662Z,927.76
2019-01-08T00:25:18.649Z,927.72
2019-01-08T00:25:31.666Z,927.75
2019-01-08T00:25:44.648Z,927.77
2019-01-08T00:25:57.580Z,927.76
2019-01-08T00:26:11.420Z,927.76
2019-01-08T00:26:24.379Z,927.77
2019-01-08T00:26:37.407Z,927.77
2019-01-08T00:26:50.436Z,927.76
2019-01-08T00:27:02.456Z,927.79
2019-01-08T00:27:15.445Z,927.77
2019-01-08T00:27:28.393Z,927.78
2019-01-08T00:27:41.396Z,927.81
2019-01-08T00:27:54.405Z,927.81
2019-01-08T00:28:07.391Z,927.84
2019-01-08T00:28:20.307Z,927.8
2019-01-08T00:28:33.302Z,927.84
2019-01-08T00:28:53.317Z,927.81
2019-01-08T00:29:06.249Z,927.85
2019-01-08T00:29:19.221Z,927.83
2019-01-08T00:29:32.206Z,927.8
2019-01-08T00:29:45.145Z,927.85
2019-01-08T00:29:58.136Z,927.87
2019-01-08T00:30:11.153Z,927.85
2019-01-08T00:30:24.186Z,927.86
2019-01-08T00:30:37.175Z,927.9
2019-01-08T00:30:50.143Z,927.87
2019-01-08T00:31:03.159Z,927.88
2019-01-08T00:31:16.441Z,927.9
2019-01-08T00:31:29.479Z,927.93
2019-01-08T00:31:42.454Z,927.92
2019-01-08T00:31:55.432Z,927.91
2019-01-08T00:32:08.410Z,927.89
2019-01-08T00:32:21.365Z,927.89
2019-01-08T00:32:34.416Z,927.92
2019-01-08T00:32:47.403Z,927.95
2019-01-08T00:33:00.348Z,927.98
2019-01-08T00:33:13.334Z,927.93
2019-01-08T00:33:26.247Z,927.94
2019-01-08T00:33:39.272Z,927.96
2019-01-08T00:33:52.266Z,927.95
2019-01-08T00:34:05.224Z,927.96
2019-01-08T00:34:18.163Z,927.96
2019-01-08T00:34:31.214Z,927.98
2019-01-08T00:34:44.265Z,927.97
2019-01-08T00:34:57.297Z,927.99
2019-01-08T00:35:10.338Z,927.96
2019-01-08T00:35:23.369Z,927.99
2019-01-08T00:35:36.367Z,927.95
2019-01-08T00:35:49.309Z,927.97
2019-01-08T00:36:02.252Z,927.97
2019-01-08T00:36:15.236Z,928
2019-01-08T00:36:28.184Z,927.97
2019-01-08T00:36:41.248Z,927.95
2019-01-08T00:36:54.200Z,928
2019-01-08T00:37:07.166Z,927.94
2019-01-08T00:37:20.178Z,927.95
2019-01-08T00:37:33.166Z,927.97
2019-01-08T00:37:46.144Z,928
2019-01-08T00:37:59.088Z,927.99
2019-01-08T00:38:12.079Z,928.01
2019-01-08T00:38:25.036Z,927.94
2019-01-08T00:38:37.995Z,927.98
2019-01-08T00:38:50.955Z,928
2019-01-08T00:39:04.002Z,928.01
2019-01-08T00:39:16.982Z,928
2019-01-08T00:39:30.017Z,928.02
2019-01-08T00:39:42.977Z,927.99
2019-01-08T00:39:56.064Z,928.02
2019-01-08T00:40:09.020Z,928.01
2019-01-08T00:40:21.975Z,928.02
2019-01-08T00:40:34.981Z,928.02
2019-01-08T00:40:48.004Z,928.02
2019-01-08T00:41:00.991Z,928.03
2019-01-08T00:41:15.126Z,928.03
2019-01-08T00:41:28.137Z,928.09
2019-01-08T00:41:41.107Z,928.04
2019-01-08T00:41:54.116Z,928.07
2019-01-08T00:42:07.163Z,928.08
2019-01-08T00:42:20.201Z,928.09
2019-01-08T00:42:33.209Z,928.06
2019-01-08T00:42:46.135Z,928.06
2019-01-08T00:42:59.106Z,928.08
2019-01-08T00:43:12.065Z,928.11
2019-01-08T00:43:25.067Z,928.1
2019-01-08T00:43:38.076Z,928.11
2019-01-08T00:43:51.039Z,928.1
2019-01-08T00:44:04.037Z,928.09
2019-01-08T00:44:16.588Z,928.11
2019-01-08T00:44:29.558Z,928.1
2019-01-08T00:44:42.550Z,928.12
2019-01-08T00:44:55.527Z,928.09
2019-01-08T00:45:08.097Z,928.13
2019-01-08T00:45:21.028Z,928.12
2019-01-08T00:45:34.011Z,928.13
2019-01-08T00:45:46.495Z,928.13
2019-01-08T00:45:59.507Z,928.14
2019-01-08T00:46:12.538Z,928.1
2019-01-08T00:46:25.506Z,928.11
2019-01-08T00:46:38.492Z,928.12
2019-01-08T00:46:51.486Z,928.09
2019-01-08T00:47:04.509Z,928.1
2019-01-08T00:47:17.506Z,928.09
2019-01-08T00:47:30.502Z,928.1
2019-01-08T00:47:43.503Z,928.08
2019-01-08T00:47:56.490Z,928.1
2019-01-08T00:48:09.496Z,928.1
2019-01-08T00:48:22.524Z,928.11
2019-01-08T00:48:35.569Z,928.06
2019-01-08T00:48:48.585Z,928.11
2019-01-08T00:49:01.508Z,928.1
2019-01-08T00:49:14.490Z,928.09
2019-01-08T00:49:27.474Z,928.08
2019-01-08T00:49:40.006Z,928.12
2019-01-08T00:49:53.000Z,928.17
2019-01-08T00:50:06.011Z,928.12
2019-01-08T00:50:19.041Z,928.13
2019-01-08T00:50:32.079Z,928.12
2019-01-08T00:50:45.117Z,928.13
2019-01-08T00:50:58.098Z,928.12
2019-01-08T00:51:11.092Z,928.12
2019-01-08T00:51:24.110Z,928.14
2019-01-08T00:51:37.146Z,928.16
2019-01-08T00:51:50.138Z,928.16
2019-01-08T00:52:03.164Z,928.14
2019-01-08T00:52:16.123Z,928.16
2019-01-08T00:52:29.114Z,928.19
2019-01-08T00:52:42.129Z,928.19
2019-01-08T00:52:55.156Z,928.18
2019-01-08T00:53:08.223Z,928.18
2019-01-08T00:53:21.242Z,928.15
2019-01-08T00:53:34.213Z,928.18
2019-01-08T00:53:47.218Z,928.18
2019-01-08T00:54:00.263Z,928.17
2019-01-08T00:54:13.256Z,928.16
2019-01-08T00:54:26.204Z,928.16
2019-01-08T00:54:39.222Z,928.2
2019-01-08T00:54:52.719Z,928.2
2019-01-08T00:55:05.698Z,928.19
2019-01-08T00:55:18.726Z,928.2
2019-01-08T00:55:31.699Z,928.22
2019-01-08T00:55:44.714Z,928.2
2019-01-08T00:55:57.741Z,928.21
2019-01-08T00:56:10.735Z,928.21
2019-01-08T00:56:24.329Z,928.17
2019-01-08T00:56:37.327Z,928.19
2019-01-08T00:56:50.292Z,928.18
2019-01-08T00:57:03.307Z,928.19
2019-01-08T00:57:16.333Z,928.21
2019-01-08T00:57:29.379Z,928.18
2019-01-08T00:57:42.312Z,928.19
2019-01-08T00:57:55.302Z,928.22
2019-01-08T00:58:08.324Z,928.2
2019-01-08T00:58:21.346Z,928.19
2019-01-08T00:58:34.409Z,928.18
2019-01-08T00:58:55.462Z,928.23
2019-01-08T00:59:08.483Z,928.19
2019-01-08T00:59:21.492Z,928.22
2019-01-08T00:59:33.995Z,928.21
2019-01-08T00:59:47.001Z,928.2
2019-01-08T00:59:59.544Z,928.21
2019-01-08T01:00:12.629Z,928.23
2019-01-08T01:00:25.592Z,928.22
2019-01-08T01:00:38.581Z,928.21
2019-01-08T01:00:51.639Z,928.24
2019-01-08T01:01:04.677Z,928.24
2019-01-08T01:01:17.651Z,928.2
2019-01-08T01:01:30.910Z,928.22
2019-01-08T01:01:43.886Z,928.24
2019-01-08T01:01:56.910Z,928.23
2019-01-08T01:02:09.976Z,928.22
2019-01-08T01:02:23.078Z,928.24
2019-01-08T01:02:36.082Z,928.22
2019-01-08T01:02:49.100Z,928.23
2019-01-08T01:03:02.084Z,928.26
2019-01-08T01:03:15.065Z,928.27
2019-01-08T01:03:28.106Z,928.24
2019-01-08T01:03:42.336Z,928.28
2019-01-08T01:03:55.421Z,928.27
2019-01-08T01:04:08.432Z,928.28
2019-01-08T01:04:21.387Z,928.27
2019-01-08T01:04:34.343Z,928.3
2019-01-08T01:04:47.337Z,928.27
2019-01-08T01:05:00.357Z,928.29
2019-01-08T01:05:13.315Z,928.3
2019-01-08T01:05:26.337Z,928.3
2019-01-08T01:05:39.435Z,928.28
2019-01-08T01:05:52.473Z,928.31
2019-01-08T01:06:05.492Z,928.31
2019-01-08T01:06:18.479Z,928.33
2019-01-08T01:06:31.039Z,928.34
2019-01-08T01:06:44.008Z,928.33
2019-01-08T01:06:56.996Z,928.34
2019-01-08T01:07:10.013Z,928.33
2019-01-08T01:07:22.948Z,928.33
2019-01-08T01:07:35.930Z,928.38
2019-01-08T01:07:48.882Z,928.33
2019-01-08T01:08:01.848Z,928.32
2019-01-08T01:08:14.760Z,928.37
2019-01-08T01:08:27.755Z,928.37
2019-01-08T01:08:40.764Z,928.37
2019-01-08T01:08:53.830Z,928.35
2019-01-08T01:09:06.805Z,928.39
2019-01-08T01:09:19.825Z,928.38
2019-01-08T01:09:32.779Z,928.38
2019-01-08T01:09:45.790Z,928.39
2019-01-08T01:09:58.273Z,928.37
2019-01-08T01:10:11.228Z,928.39
2019-01-08T01:10:24.214Z,928.42
2019-01-08T01:10:37.236Z,928.41
2019-01-08T01:10:50.324Z,928.42
2019-01-08T01:11:03.272Z,928.39
2019-01-08T01:11:16.240Z,928.4
2019-01-08T01:11:29.970Z,928.41
2019-01-08T01:11:42.961Z,928.38
2019-01-08T01:11:55.926Z,928.41
2019-01-08T01:12:08.904Z,928.38
2019-01-08T01:12:21.924Z,928.36
2019-01-08T01:12:34.932Z,928.39
2019-01-08T01:12:47.969Z,928.41
2019-01-08T01:13:00.943Z,928.37
2019-01-08T01:13:13.490Z,928.42
2019-01-08T01:13:26.580Z,928.4
2019-01-08T01:13:39.504Z,928.37
2019-01-08T01:13:52.020Z,928.39
2019-01-08T01:14:05.012Z,928.39
2019-01-08T01:14:18.005Z,928.44
2019-01-08T01:14:31.064Z,928.44
2019-01-08T01:14:44.048Z,928.4
2019-01-08T01:14:57.079Z,928.45
2019-01-08T01:15:10.176Z,928.44
2019-01-08T01:15:23.179Z,928.42
2019-01-08T01:15:36.151Z,928.4
2019-01-08T01:15:49.170Z,928.45
2019-01-08T01:16:02.138Z,928.4
2019-01-08T01:16:15.131Z,928.44
2019-01-08T01:16:28.134Z,928.41
2019-01-08T01:16:41.119Z,928.43
2019-01-08T01:16:54.095Z,928.41
2019-01-08T01:17:07.067Z,928.42
2019-01-08T01:17:20.072Z,928.43
2019-01-08T01:17:33.053Z,928.42
2019-01-08T01:17:46.133Z,928.39
2019-01-08T01:17:59.160Z,928.43
2019-01-08T01:18:12.183Z,928.45
2019-01-08T01:18:25.132Z,928.42
2019-01-08T01:18:38.140Z,928.44
2019-01-08T01:18:51.126Z,928.43
2019-01-08T01:19:04.119Z,928.42
2019-01-08T01:19:17.096Z,928.43
2019-01-08T01:19:30.131Z,928.42
2019-01-08T01:19:43.087Z,928.43
2019-01-08T01:19:56.095Z,928.45
2019-01-08T01:20:09.045Z,928.41
2019-01-08T01:20:22.068Z,928.39
2019-01-08T01:20:35.091Z,928.41
2019-01-08T01:20:48.133Z,928.42
2019-01-08T01:21:00.792Z,928.38
2019-01-08T01:21:13.750Z,928.39
2019-01-08T01:21:26.765Z,928.41
2019-01-08T01:21:39.754Z,928.39
2019-01-08T01:21:52.721Z,928.37
2019-01-08T01:22:05.308Z,928.38
2019-01-08T01:22:18.321Z,928.37
2019-01-08T01:22:31.332Z,928.33
2019-01-08T01:22:44.350Z,928.34
2019-01-08T01:22:57.285Z,928.34
2019-01-08T01:23:10.263Z,928.33
2019-01-08T01:23:23.227Z,928.36
2019-01-08T01:23:36.226Z,928.35
2019-01-08T01:23:49.208Z,928.36
2019-01-08T01:24:02.240Z,928.34
2019-01-08T01:24:15.222Z,928.37
2019-01-08T01:24:28.251Z,928.36
2019-01-08T01:24:41.261Z,928.36
2019-01-08T01:24:54.244Z,928.37
2019-01-08T01:25:07.206Z,928.35
2019-01-08T01:25:20.233Z,928.35
2019-01-08T01:25:32.725Z,928.4
2019-01-08T01:25:45.728Z,928.35
2019-01-08T01:25:58.271Z,928.35
2019-01-08T01:26:11.213Z,928.34
2019-01-08T01:26:24.163Z,928.36
2019-01-08T01:26:37.847Z,928.34
2019-01-08T01:26:50.905Z,928.35
2019-01-08T01:27:03.875Z,928.36
2019-01-08T01:27:16.877Z,928.35
2019-01-08T01:27:29.881Z,928.37
2019-01-08T01:27:42.887Z,928.35
2019-01-08T01:27:55.898Z,928.35
2019-01-08T01:28:08.899Z,928.35
2019-01-08T01:28:21.856Z,928.36
2019-01-08T01:28:34.404Z,928.38
2019-01-08T01:28:47.436Z,928.39
2019-01-08T01:29:07.235Z,928.37
2019-01-08T01:29:20.214Z,928.37
2019-01-08T01:29:33.254Z,928.35
2019-01-08T01:29:46.276Z,928.38
2019-01-08T01:29:59.323Z,928.36
2019-01-08T01:30:12.334Z,928.35
2019-01-08T01:30:25.348Z,928.36
2019-01-08T01:30:38.317Z,928.34
2019-01-08T01:30:51.312Z,928.36
2019-01-08T01:31:04.370Z,928.39
2019-01-08T01:31:17.371Z,928.35
2019-01-08T01:31:30.392Z,928.35
2019-01-08T01:31:43.614Z,928.35
2019-01-08T01:31:56.584Z,928.35
2019-01-08T01:32:09.565Z,928.36
2019-01-08T01:32:22.514Z,928.34
2019-01-08T01:32:35.528Z,928.36
2019-01-08T01:32:48.497Z,928.36
2019-01-08T01:33:01.476Z,928.34
2019-01-08T01:33:14.489Z,928.3
2019-01-08T01:33:27.029Z,928.31
2019-01-08T01:33:39.994Z,928.34
2019-01-08T01:33:53.002Z,928.34
2019-01-08T01:34:05.995Z,928.34
2019-01-08T01:34:18.992Z,928.33
2019-01-08T01:34:31.959Z,928.33
2019-01-08T01:34:44.969Z,928.36
2019-01-08T01:34:57.913Z,928.36
2019-01-08T01:35:10.845Z,928.36
2019-01-08T01:35:23.758Z,928.36
2019-01-08T01:35:36.709Z,928.37
2019-01-08T01:35:49.772Z,928.35
2019-01-08T01:36:02.784Z,928.38
2019-01-08T01:36:15.730Z,928.34
2019-01-08T01:36:28.726Z,928.34
2019-01-08T01:36:41.714Z,928.36
2019-01-08T01:36:54.697Z,928.38
2019-01-08T01:37:07.702Z,928.35
2019-01-08T01:37:20.654Z,928.4
2019-01-08T01:37:33.612Z,928.36
2019-01-08T01:37:46.615Z,928.37
2019-01-08T01:37:59.548Z,928.41
2019-01-08T01:38:12.532Z,928.4
2019-01-08T01:38:25.490Z,928.43
2019-01-08T01:38:38.686Z,928.39
2019-01-08T01:38:51.690Z,928.4
2019-01-08T01:39:04.732Z,928.4
2019-01-08T01:39:17.746Z,928.4
2019-01-08T01:39:30.715Z,928.39
2019-01-08T01:39:43.676Z,928.38
2019-01-08T01:39:56.659Z,928.38
2019-01-08T01:40:09.661Z,928.38
2019-01-08T01:40:22.207Z,928.4
2019-01-08T01:40:35.235Z,928.38
2019-01-08T01:40:48.252Z,928.38
2019-01-08T01:41:01.223Z,928.42
2019-01-08T01:41:14.184Z,928.37
2019-01-08T01:41:27.117Z,928.41
2019-01-08T01:41:40.048Z,928.38
2019-01-08T01:41:53.187Z,928.37
2019-01-08T01:42:06.127Z,928.4
2019-01-08T01:42:19.113Z,928.36
2019-01-08T01:42:32.056Z,928.38
2019-01-08T01:42:44.975Z,928.35
2019-01-08T01:42:57.998Z,928.4
2019-01-08T01:43:10.965Z,928.38
2019-01-08T01:43:23.903Z,928.38
2019-01-08T01:43:36.429Z,928.38
2019-01-08T01:43:49.434Z,928.38
2019-01-08T01:44:02.403Z,928.4
2019-01-08T01:44:15.358Z,928.39
2019-01-08T01:44:28.334Z,928.4
2019-01-08T01:44:41.324Z,928.4
2019-01-08T01:44:54.325Z,928.43
2019-01-08T01:45:07.423Z,928.42
2019-01-08T01:45:20.437Z,928.4
2019-01-08T01:45:33.471Z,928.39
2019-01-08T01:45:46.470Z,928.42
2019-01-08T01:45:59.511Z,928.4
2019-01-08T01:46:12.548Z,928.41
2019-01-08T01:46:25.534Z,928.37
2019-01-08T01:46:38.541Z,928.39
2019-01-08T01:46:51.523Z,928.44
2019-01-08T01:47:04.449Z,928.42
2019-01-08T01:47:17.429Z,928.42
2019-01-08T01:47:30.404Z,928.41
2019-01-08T01:47:43.401Z,928.38
2019-01-08T01:47:56.350Z,928.41
2019-01-08T01:48:09.306Z,928.38
2019-01-08T01:48:22.234Z,928.43
2019-01-08T01:48:35.284Z,928.44
2019-01-08T01:48:48.234Z,928.41
2019-01-08T01:49:01.172Z,928.38
2019-01-08T01:49:14.136Z,928.41
2019-01-08T01:49:27.121Z,928.38
2019-01-08T01:49:40.156Z,928.36
2019-01-08T01:49:53.184Z,928.37
2019-01-08T01:50:06.199Z,928.39
2019-01-08T01:50:19.197Z,928.34
2019-01-08T01:50:32.172Z,928.35
2019-01-08T01:50:45.188Z,928.39
2019-01-08T01:50:58.138Z,928.37
2019-01-08T01:51:11.167Z,928.34
2019-01-08T01:51:24.180Z,928.37
2019-01-08T01:51:37.111Z,928.37
2019-01-08T01:51:50.085Z,928.41
2019-01-08T01:52:03.096Z,928.39
2019-01-08T01:52:16.054Z,928.38
2019-01-08T01:52:29.039Z,928.38
2019-01-08T01:52:42.007Z,928.41
2019-01-08T01:52:55.033Z,928.39
2019-01-08T01:53:07.547Z,928.4
2019-01-08T01:53:20.551Z,928.42
2019-01-08T01:53:33.548Z,928.42
2019-01-08T01:53:46.577Z,928.43
2019-01-08T01:53:59.524Z,928.44
2019-01-08T01:54:12.554Z,928.45
2019-01-08T01:54:25.709Z,928.45
2019-01-08T01:54:38.744Z,928.46
2019-01-08T01:54:51.737Z,928.44
2019-01-08T01:55:04.693Z,928.42
2019-01-08T01:55:17.708Z,928.43
2019-01-08T01:55:30.735Z,928.43
2019-01-08T01:55:43.717Z,928.41
2019-01-08T01:55:56.716Z,928.42
2019-01-08T01:56:09.783Z,928.43
2019-01-08T01:56:22.681Z,928.38
2019-01-08T01:56:35.657Z,928.43
2019-01-08T01:56:49.399Z,928.4
2019-01-08T01:57:02.401Z,928.4
2019-01-08T01:57:15.344Z,928.4
2019-01-08T01:57:28.380Z,928.4
2019-01-08T01:57:41.385Z,928.36
2019-01-08T01:57:54.434Z,928.33
2019-01-08T01:58:07.405Z,928.36
2019-01-08T01:58:20.430Z,928.35
2019-01-08T01:58:33.422Z,928.35
2019-01-08T01:58:46.456Z,928.35
2019-01-08T01:58:59.414Z,928.34
2019-01-08T01:59:18.617Z,928.33
2019-01-08T01:59:31.629Z,928.35
2019-01-08T01:59:44.637Z,928.35
2019-01-08T01:59:57.628Z,928.34
2019-01-08T02:00:10.642Z,928.32
2019-01-08T02:00:23.602Z,928.32
2019-01-08T02:00:36.575Z,928.32
2019-01-08T02:00:49.585Z,928.31
2019-01-08T02:01:02.201Z,928.32
2019-01-08T02:01:15.169Z,928.34
2019-01-08T02:01:28.238Z,928.34
2019-01-08T02:01:41.271Z,928.35
2019-01-08T02:01:54.027Z,928.36
2019-01-08T02:02:07.017Z,928.3
2019-01-08T02:02:19.995Z,928.31
2019-01-08T02:02:32.980Z,928.3
2019-01-08T02:02:45.933Z,928.33
2019-01-08T02:02:58.930Z,928.29
2019-01-08T02:03:11.958Z,928.3
2019-01-08T02:03:24.950Z,928.31
2019-01-08T02:03:37.973Z,928.28
2019-01-08T02:03:50.527Z,928.31
2019-01-08T02:04:03.499Z,928.3
2019-01-08T02:04:16.452Z,928.28
2019-01-08T02:04:29.440Z,928.3
2019-01-08T02:04:42.444Z,928.28
2019-01-08T02:04:55.404Z,928.27
2019-01-08T02:05:08.385Z,928.28
2019-01-08T02:05:21.383Z,928.24
2019-01-08T02:05:34.372Z,928.3
2019-01-08T02:05:46.962Z,928.27
2019-01-08T02:05:59.970Z,928.28
2019-01-08T02:06:12.923Z,928.3
2019-01-08T02:06:25.926Z,928.26
2019-01-08T02:06:39.044Z,928.27
2019-01-08T02:06:52.094Z,928.26
2019-01-08T02:07:04.764Z,928.28
2019-01-08T02:07:17.723Z,928.3
2019-01-08T02:07:30.703Z,928.28
2019-01-08T02:07:43.630Z,928.28
2019-01-08T02:07:56.163Z,928.25
2019-01-08T02:08:09.211Z,928.29
2019-01-08T02:08:22.184Z,928.27
2019-01-08T02:08:35.167Z,928.27
2019-01-08T02:08:48.153Z,928.27
2019-01-08T02:09:01.149Z,928.28
2019-01-08T02:09:14.076Z,928.27
2019-01-08T02:09:27.108Z,928.27
2019-01-08T02:09:40.148Z,928.28
2019-01-08T02:09:53.133Z,928.3
2019-01-08T02:10:06.089Z,928.3
2019-01-08T02:10:19.086Z,928.28
2019-01-08T02:10:32.089Z,928.29
2019-01-08T02:10:44.562Z,928.27
2019-01-08T02:10:57.534Z,928.27
2019-01-08T02:11:10.492Z,928.28
2019-01-08T02:11:23.560Z,928.25
2019-01-08T02:11:36.543Z,928.28
2019-01-08T02:11:49.557Z,928.26
2019-01-08T02:12:03.105Z,928.28
2019-01-08T02:12:16.069Z,928.26
2019-01-08T02:12:29.059Z,928.26
2019-01-08T02:12:42.019Z,928.23
2019-01-08T02:12:55.041Z,928.25
2019-01-08T02:13:08.030Z,928.27
2019-01-08T02:13:21.003Z,928.23
2019-01-08T02:13:33.974Z,928.23
2019-01-08T02:13:46.982Z,928.27
2019-01-08T02:13:59.973Z,928.25
2019-01-08T02:14:12.890Z,928.23
2019-01-08T02:14:25.936Z,928.25
2019-01-08T02:14:38.923Z,928.21
2019-01-08T02:14:51.940Z,928.24
2019-01-08T02:15:04.923Z,928.23
2019-01-08T02:15:17.901Z,928.2
2019-01-08T02:15:30.837Z,928.2
2019-01-08T02:15:43.770Z,928.19
2019-01-08T02:15:56.678Z,928.25
2019-01-08T02:16:09.651Z,928.21
2019-01-08T02:16:22.153Z,928.18
2019-01-08T02:16:35.148Z,928.21
2019-01-08T02:16:48.117Z,928.2
2019-01-08T02:17:01.090Z,928.22
2019-01-08T02:17:14.058Z,928.21
2019-01-08T02:17:27.032Z,928.21
2019-01-08T02:17:40.022Z,928.21
2019-01-08T02:17:53.017Z,928.22
2019-01-08T02:18:06.014Z,928.21
2019-01-08T02:18:19.034Z,928.24
2019-01-08T02:18:31.990Z,928.19
2019-01-08T02:18:45.006Z,928.21
2019-01-08T02:18:58.044Z,928.16
2019-01-08T02:19:11.069Z,928.18
2019-01-08T02:19:24.040Z,928.17
2019-01-08T02:19:37.029Z,928.17
2019-01-08T02:19:50.022Z,928.17
2019-01-08T02:20:02.938Z,928.2
2019-01-08T02:20:15.928Z,928.16
2019-01-08T02:20:28.840Z,928.17
2019-01-08T02:20:41.806Z,928.17
2019-01-08T02:20:54.770Z,928.15
2019-01-08T02:21:07.714Z,928.16
2019-01-08T02:21:20.748Z,928.12
2019-01-08T02:21:33.767Z,928.12
2019-01-08T02:21:46.697Z,928.15
2019-01-08T02:21:59.645Z,928.12
2019-01-08T02:22:12.565Z,928.12
2019-01-08T02:22:25.633Z,928.13
2019-01-08T02:22:38.613Z,928.14
2019-01-08T02:22:51.533Z,928.16
2019-01-08T02:23:04.564Z,928.13
2019-01-08T02:23:17.128Z,928.14
2019-01-08T02:23:30.119Z,928.14
2019-01-08T02:23:43.155Z,928.14
2019-01-08T02:23:56.113Z,928.14
2019-01-08T02:24:09.141Z,928.11
2019-01-08T02:24:22.175Z,928.15
2019-01-08T02:24:35.170Z,928.14
2019-01-08T02:24:48.174Z,928.11
2019-01-08T02:25:01.321Z,928.13
2019-01-08T02:25:14.332Z,928.14
2019-01-08T02:25:26.870Z,928.12
2019-01-08T02:25:39.830Z,928.14
2019-01-08T02:25:52.842Z,928.12
2019-01-08T02:26:05.845Z,928.1
2019-01-08T02:26:19.602Z,928.12
2019-01-08T02:26:32.641Z,928.1
2019-01-08T02:26:45.648Z,928.16
2019-01-08T02:26:59.317Z,928.15
2019-01-08T02:27:12.210Z,928.15
2019-01-08T02:27:25.212Z,928.12
2019-01-08T02:27:38.221Z,928.14
2019-01-08T02:27:51.209Z,928.12
2019-01-08T02:28:04.212Z,928.16
2019-01-08T02:28:17.365Z,928.13
2019-01-08T02:28:30.368Z,928.13
2019-01-08T02:28:43.357Z,928.14
2019-01-08T02:28:56.351Z,928.15
2019-01-08T02:29:17.487Z,928.11
2019-01-08T02:29:30.497Z,928.12
2019-01-08T02:29:43.476Z,928.12
2019-01-08T02:29:56.459Z,928.14
2019-01-08T02:30:09.450Z,928.1
2019-01-08T02:30:22.456Z,928.12
2019-01-08T02:30:35.430Z,928.12
2019-01-08T02:30:48.403Z,928.08
2019-01-08T02:31:01.431Z,928.12
2019-01-08T02:31:14.441Z,928.12
2019-01-08T02:31:27.431Z,928.12
2019-01-08T02:31:40.478Z,928.1
2019-01-08T02:31:53.484Z,928.08
2019-01-08T02:32:06.655Z,928.11
2019-01-08T02:32:21.941Z,928.1
2019-01-08T02:32:35.107Z,928.06
2019-01-08T02:32:48.115Z,928.04
2019-01-08T02:33:00.655Z,928.1
2019-01-08T02:33:13.691Z,928.06
2019-01-08T02:33:26.669Z,928.09
2019-01-08T02:33:39.695Z,928.06
2019-01-08T02:33:52.722Z,928.06
2019-01-08T02:34:05.720Z,928.08
2019-01-08T02:34:18.709Z,928.04
2019-01-08T02:34:31.736Z,928.06
2019-01-08T02:34:44.776Z,928.05
2019-01-08T02:34:57.850Z,928.1
2019-01-08T02:35:10.891Z,928.07
2019-01-08T02:35:23.914Z,928.09
2019-01-08T02:35:36.960Z,928.03
2019-01-08T02:35:49.949Z,928.08
2019-01-08T02:36:02.924Z,928.06
2019-01-08T02:36:15.976Z,928.03
2019-01-08T02:36:29.000Z,928.08
2019-01-08T02:36:41.595Z,928.06
2019-01-08T02:36:54.547Z,928.07
2019-01-08T02:37:07.572Z,928.05
2019-01-08T02:37:20.568Z,928.07
2019-01-08T02:37:33.570Z,928.05
2019-01-08T02:37:46.600Z,928.1
2019-01-08T02:37:59.569Z,928.07
2019-01-08T02:38:12.554Z,928.07
2019-01-08T02:38:25.513Z,928.09
2019-01-08T02:38:37.997Z,928.1
2019-01-08T02:38:50.978Z,928.03
2019-01-08T02:39:03.994Z,928.1
2019-01-08T02:39:16.984Z,928.06
2019-01-08T02:39:29.985Z,928.12
2019-01-08T02:39:42.959Z,928.06
2019-01-08T02:39:55.962Z,928.12
2019-01-08T02:40:08.951Z,928.08
2019-01-08T02:40:21.467Z,928.08
2019-01-08T02:40:34.471Z,928.1
2019-01-08T02:40:47.442Z,928.06
2019-01-08T02:41:00.444Z,928.1
2019-01-08T02:41:13.792Z,928.09
2019-01-08T02:41:27.549Z,928.11
2019-01-08T02:41:41.060Z,928.08
2019-01-08T02:41:54.669Z,928.07
2019-01-08T02:42:08.392Z,928.06
2019-01-08T02:42:21.336Z,928.07
2019-01-08T02:42:33.894Z,928.1
2019-01-08T02:42:46.886Z,928.04
2019-01-08T02:42:59.890Z,928.07
2019-01-08T02:43:12.918Z,928.04